sensor_id;sensor_type;location;lat;lon;timestamp;pressure;altitude;pressure_sealevel;temperature;humidity
23318;BME280;11831;55.918;37.746;2023-03-15T00:01:14;98679.47;;;5.89;0.00
23318;BME280;11831;55.918;37.746;2023-03-15T00:03:42;98678.09;;;6.05;0.00
23318;BME280;11831;55.918;37.746;2023-03-15T00:06:09;98676.31;;;5.99;0.00
23318;BME280;11831;55.918;37.746;2023-03-15T00:08:35;98674.91;;;5.97;0.00
23318;BME280;11831;55.918;37.746;2023-03-15T00:11:02;98664.50;;;6.20;0.00
23318;BME280;11831;55.918;37.746;2023-03-15T00:13:29;98682.87;;;5.97;0.00
23318;BME280;11831;55.918;37.746;2023-03-15T00:15:57;98668.84;;;5.89;0.00
23318;BME280;11831;55.918;37.746;2023-03-15T00:18:25;98674.53;;;5.93;0.00
23318;BME280;11831;55.918;37.746;2023-03-15T00:20:51;98674.63;;;6.05;0.00
23318;BME280;11831;55.918;37.746;2023-03-15T00:23:17;98680.38;;;6.02;0.00
23318;BME280;11831;55.918;37.746;2023-03-15T00:25:45;98678.66;;;5.82;0.00
23318;BME280;11831;55.918;37.746;2023-03-15T00:28:12;98673.50;;;5.94;0.00
23318;BME280;11831;55.918;37.746;2023-03-15T00:30:39;98692.56;;;5.78;0.00
23318;BME280;11831;55.918;37.746;2023-03-15T00:33:07;98679.84;;;5.86;0.00
23318;BME280;11831;55.918;37.746;2023-03-15T00:35:37;98670.78;;;6.01;0.00
23318;BME280;11831;55.918;37.746;2023-03-15T00:38:04;98670.56;;;6.02;0.00
23318;BME280;11831;55.918;37.746;2023-03-15T00:40:30;98669.69;;;6.08;0.00
23318;BME280;11831;55.918;37.746;2023-03-15T00:42:57;98665.16;;;5.90;0.00
23318;BME280;11831;55.918;37.746;2023-03-15T00:45:24;98665.53;;;5.94;0.00
23318;BME280;11831;55.918;37.746;2023-03-15T00:47:51;98672.34;;;6.08;0.00
23318;BME280;11831;55.918;37.746;2023-03-15T00:50:21;98673.66;;;5.99;0.00
23318;BME280;11831;55.918;37.746;2023-03-15T00:52:48;98677.84;;;6.13;0.00
23318;BME280;11831;55.918;37.746;2023-03-15T00:55:17;98685.50;;;5.97;0.00
23318;BME280;11831;55.918;37.746;2023-03-15T00:57:44;98666.44;;;6.06;0.00
23318;BME280;11831;55.918;37.746;2023-03-15T01:00:14;98676.59;;;5.84;0.00
23318;BME280;11831;55.918;37.746;2023-03-15T01:02:41;98684.47;;;5.98;0.00
23318;BME280;11831;55.918;37.746;2023-03-15T01:05:09;98674.19;;;6.08;0.00
23318;BME280;11831;55.918;37.746;2023-03-15T01:07:35;98682.25;;;5.95;0.00
23318;BME280;11831;55.918;37.746;2023-03-15T01:10:04;98667.00;;;6.15;0.00
23318;BME280;11831;55.918;37.746;2023-03-15T01:12:32;98677.72;;;6.02;0.00
23318;BME280;11831;55.918;37.746;2023-03-15T01:15:00;98669.16;;;6.00;0.00
23318;BME280;11831;55.918;37.746;2023-03-15T01:17:27;98687.56;;;5.95;0.00
23318;BME280;11831;55.918;37.746;2023-03-15T01:19:53;98684.13;;;5.87;0.00
23318;BME280;11831;55.918;37.746;2023-03-15T01:22:20;98661.63;;;5.97;0.00
23318;BME280;11831;55.918;37.746;2023-03-15T01:24:46;98659.87;;;6.09;0.00
23318;BME280;11831;55.918;37.746;2023-03-15T01:27:13;98673.16;;;6.09;0.00
23318;BME280;11831;55.918;37.746;2023-03-15T01:29:39;98667.59;;;6.17;0.00
23318;BME280;11831;55.918;37.746;2023-03-15T01:32:06;98669.16;;;6.00;0.00
23318;BME280;11831;55.918;37.746;2023-03-15T01:34:34;98668.84;;;6.14;0.00
23318;BME280;11831;55.918;37.746;2023-03-15T01:37:01;98671.66;;;5.95;0.00
23318;BME280;11831;55.918;37.746;2023-03-15T01:39:29;98672.91;;;5.92;0.00
23318;BME280;11831;55.918;37.746;2023-03-15T01:41:55;98669.59;;;5.97;0.00
23318;BME280;11831;55.918;37.746;2023-03-15T01:44:23;98659.66;;;5.85;0.00
23318;BME280;11831;55.918;37.746;2023-03-15T01:46:49;98666.72;;;5.98;0.00
23318;BME280;11831;55.918;37.746;2023-03-15T01:49:28;98661.94;;;5.82;0.00
23318;BME280;11831;55.918;37.746;2023-03-15T01:52:03;98680.44;;;5.88;0.00
23318;BME280;11831;55.918;37.746;2023-03-15T01:54:53;98683.56;;;5.79;0.00
23318;BME280;11831;55.918;37.746;2023-03-15T01:57:34;98667.09;;;6.02;0.00
23318;BME280;11831;55.918;37.746;2023-03-15T02:02:43;98678.66;;;5.82;0.00
23318;BME280;11831;55.918;37.746;2023-03-15T02:05:18;98674.03;;;6.03;0.00
23318;BME280;11831;55.918;37.746;2023-03-15T02:07:46;98674.16;;;5.89;0.00
23318;BME280;11831;55.918;37.746;2023-03-15T02:10:19;98678.00;;;5.94;0.00
23318;BME280;11831;55.918;37.746;2023-03-15T02:12:51;98674.25;;;5.70;0.00
23318;BME280;11831;55.918;37.746;2023-03-15T02:15:20;98669.91;;;5.75;0.00
23318;BME280;11831;55.918;37.746;2023-03-15T02:17:47;98671.59;;;6.01;0.00
23318;BME280;11831;55.918;37.746;2023-03-15T02:20:36;98668.22;;;5.87;0.00
23318;BME280;11831;55.918;37.746;2023-03-15T02:23:10;98676.78;;;5.89;0.00
23318;BME280;11831;55.918;37.746;2023-03-15T02:28:28;98710.84;;;5.61;0.00
23318;BME280;11831;55.918;37.746;2023-03-15T02:30:56;98678.22;;;5.85;0.00
23318;BME280;11831;55.918;37.746;2023-03-15T02:33:25;98674.03;;;6.03;0.00
23318;BME280;11831;55.918;37.746;2023-03-15T02:35:53;98683.72;;;5.90;0.00
23318;BME280;11831;55.918;37.746;2023-03-15T02:38:20;98689.34;;;5.69;0.00
23318;BME280;11831;55.918;37.746;2023-03-15T02:40:51;98684.00;;;5.76;0.00
23318;BME280;11831;55.918;37.746;2023-03-15T02:43:23;98683.78;;;5.77;0.00
23318;BME280;11831;55.918;37.746;2023-03-15T02:45:50;98682.03;;;5.65;0.00
23318;BME280;11831;55.918;37.746;2023-03-15T02:48:17;98690.47;;;5.86;0.00
23318;BME280;11831;55.918;37.746;2023-03-15T02:50:44;98677.72;;;5.70;0.00
23318;BME280;11831;55.918;37.746;2023-03-15T02:53:12;98674.56;;;5.86;0.00
23318;BME280;11831;55.918;37.746;2023-03-15T02:55:38;98684.59;;;5.78;0.00
23318;BME280;11831;55.918;37.746;2023-03-15T02:58:05;98683.34;;;5.80;0.00
23318;BME280;11831;55.918;37.746;2023-03-15T03:00:31;98678.75;;;6.01;0.00
23318;BME280;11831;55.918;37.746;2023-03-15T03:02:58;98681.47;;;5.87;0.00
23318;BME280;11831;55.918;37.746;2023-03-15T03:05:24;98686.00;;;5.80;0.00
23318;BME280;11831;55.918;37.746;2023-03-15T03:07:51;98687.28;;;5.71;0.00
23318;BME280;11831;55.918;37.746;2023-03-15T03:10:18;98679.56;;;5.70;0.00
23318;BME280;11831;55.918;37.746;2023-03-15T03:12:47;98682.75;;;6.10;0.00
23318;BME280;11831;55.918;37.746;2023-03-15T03:15:18;98681.06;;;5.90;0.00
23318;BME280;11831;55.918;37.746;2023-03-15T03:17:45;98683.63;;;5.72;0.00
23318;BME280;11831;55.918;37.746;2023-03-15T03:20:12;98678.31;;;5.72;0.00
23318;BME280;11831;55.918;37.746;2023-03-15T03:22:40;98692.88;;;5.63;0.00
23318;BME280;11831;55.918;37.746;2023-03-15T03:25:08;98687.06;;;5.73;0.00
23318;BME280;11831;55.918;37.746;2023-03-15T03:27:39;98681.50;;;5.81;0.00
23318;BME280;11831;55.918;37.746;2023-03-15T03:30:09;98686.31;;;5.66;0.00
23318;BME280;11831;55.918;37.746;2023-03-15T03:32:36;98689.06;;;5.84;0.00
23318;BME280;11831;55.918;37.746;2023-03-15T03:35:03;98698.44;;;5.80;0.00
23318;BME280;11831;55.918;37.746;2023-03-15T03:37:29;98696.88;;;5.72;0.00
23318;BME280;11831;55.918;37.746;2023-03-15T03:39:57;98692.97;;;5.75;0.00
23318;BME280;11831;55.918;37.746;2023-03-15T03:42:24;98692.97;;;5.75;0.00
23318;BME280;11831;55.918;37.746;2023-03-15T03:44:50;98692.16;;;6.06;0.00
23318;BME280;11831;55.918;37.746;2023-03-15T03:47:19;98686.97;;;6.17;0.00
23318;BME280;11831;55.918;37.746;2023-03-15T03:49:46;98687.12;;;5.66;0.00
23318;BME280;11831;55.918;37.746;2023-03-15T03:52:12;98692.91;;;5.88;0.00
23318;BME280;11831;55.918;37.746;2023-03-15T03:54:39;98691.84;;;5.96;0.00
23318;BME280;11831;55.918;37.746;2023-03-15T03:57:09;98700.06;;;5.87;0.00
23318;BME280;11831;55.918;37.746;2023-03-15T03:59:35;98702.00;;;5.67;0.00
23318;BME280;11831;55.918;37.746;2023-03-15T04:02:02;98704.41;;;5.75;0.00
23318;BME280;11831;55.918;37.746;2023-03-15T04:04:28;98705.25;;;5.69;0.00
23318;BME280;11831;55.918;37.746;2023-03-15T04:06:55;98699.97;;;6.01;0.00
23318;BME280;11831;55.918;37.746;2023-03-15T04:09:21;98710.72;;;5.74;0.00
23318;BME280;11831;55.918;37.746;2023-03-15T04:11:49;98706.88;;;5.70;0.00
23318;BME280;11831;55.918;37.746;2023-03-15T04:14:16;98712.69;;;5.60;0.00
23318;BME280;11831;55.918;37.746;2023-03-15T04:16:43;98720.84;;;5.59;0.00
23318;BME280;11831;55.918;37.746;2023-03-15T04:19:09;98709.16;;;5.67;0.00
23318;BME280;11831;55.918;37.746;2023-03-15T04:21:37;98707.44;;;5.79;0.00
23318;BME280;11831;55.918;37.746;2023-03-15T04:24:05;98710.28;;;5.84;0.00
23318;BME280;11831;55.918;37.746;2023-03-15T04:26:32;98699.09;;;5.75;0.00
23318;BME280;11831;55.918;37.746;2023-03-15T04:29:00;98691.94;;;5.82;0.00
23318;BME280;11831;55.918;37.746;2023-03-15T04:31:27;98704.25;;;5.70;0.00
23318;BME280;11831;55.918;37.746;2023-03-15T04:33:54;98699.66;;;5.90;0.00
23318;BME280;11831;55.918;37.746;2023-03-15T04:36:23;98686.31;;;5.97;0.00
23318;BME280;11831;55.918;37.746;2023-03-15T04:38:51;98705.78;;;5.84;0.00
23318;BME280;11831;55.918;37.746;2023-03-15T04:41:30;98708.66;;;5.51;0.00
23318;BME280;11831;55.918;37.746;2023-03-15T04:43:56;98702.56;;;5.76;0.00
23318;BME280;11831;55.918;37.746;2023-03-15T04:46:23;98710.50;;;5.82;0.00
23318;BME280;11831;55.918;37.746;2023-03-15T04:48:50;98727.84;;;5.78;0.00
23318;BME280;11831;55.918;37.746;2023-03-15T04:51:17;98726.78;;;5.93;0.00
23318;BME280;11831;55.918;37.746;2023-03-15T04:53:43;98730.13;;;5.75;0.00
23318;BME280;11831;55.918;37.746;2023-03-15T04:56:10;98720.69;;;5.85;0.00
23318;BME280;11831;55.918;37.746;2023-03-15T04:58:37;98727.59;;;5.93;0.00
23318;BME280;11831;55.918;37.746;2023-03-15T05:01:03;98739.44;;;5.90;0.00
23318;BME280;11831;55.918;37.746;2023-03-15T05:03:31;98736.37;;;5.87;0.00
23318;BME280;11831;55.918;37.746;2023-03-15T05:05:57;98738.22;;;6.18;0.00
23318;BME280;11831;55.918;37.746;2023-03-15T05:08:24;98746.59;;;5.90;0.00
23318;BME280;11831;55.918;37.746;2023-03-15T05:10:50;98750.56;;;6.06;0.00
23318;BME280;11831;55.918;37.746;2023-03-15T05:13:17;98745.00;;;5.82;0.00
23318;BME280;11831;55.918;37.746;2023-03-15T05:15:44;98757.16;;;5.97;0.00
23318;BME280;11831;55.918;37.746;2023-03-15T05:18:10;98760.06;;;6.20;0.00
23318;BME280;11831;55.918;37.746;2023-03-15T05:20:37;98758.44;;;5.81;0.00
23318;BME280;11831;55.918;37.746;2023-03-15T05:23:03;98767.41;;;5.86;0.00
23318;BME280;11831;55.918;37.746;2023-03-15T05:25:30;98770.06;;;5.80;0.00
23318;BME280;11831;55.918;37.746;2023-03-15T05:27:56;98765.56;;;5.94;0.00
23318;BME280;11831;55.918;37.746;2023-03-15T05:30:23;98768.44;;;5.85;0.00
23318;BME280;11831;55.918;37.746;2023-03-15T05:32:52;98774.53;;;5.93;0.00
23318;BME280;11831;55.918;37.746;2023-03-15T05:35:19;98770.03;;;5.93;0.00
23318;BME280;11831;55.918;37.746;2023-03-15T05:37:47;98777.94;;;5.61;0.00
23318;BME280;11831;55.918;37.746;2023-03-15T05:40:14;98779.31;;;5.71;0.00
23318;BME280;11831;55.918;37.746;2023-03-15T05:42:41;98777.06;;;5.74;0.00
23318;BME280;11831;55.918;37.746;2023-03-15T05:45:08;98772.91;;;5.91;0.00
23318;BME280;11831;55.918;37.746;2023-03-15T05:47:35;98785.59;;;5.83;0.00
23318;BME280;11831;55.918;37.746;2023-03-15T05:50:02;98788.13;;;5.65;0.00
23318;BME280;11831;55.918;37.746;2023-03-15T05:52:30;98793.09;;;5.93;0.00
23318;BME280;11831;55.918;37.746;2023-03-15T05:54:57;98783.22;;;6.06;0.00
23318;BME280;11831;55.918;37.746;2023-03-15T05:57:23;98793.75;;;5.81;0.00
23318;BME280;11831;55.918;37.746;2023-03-15T05:59:50;98793.56;;;5.76;0.00
23318;BME280;11831;55.918;37.746;2023-03-15T06:02:17;98801.56;;;6.08;0.00
23318;BME280;11831;55.918;37.746;2023-03-15T06:04:44;98795.72;;;5.99;0.00
23318;BME280;11831;55.918;37.746;2023-03-15T06:07:10;98793.38;;;6.16;0.00
23318;BME280;11831;55.918;37.746;2023-03-15T06:09:37;98789.50;;;6.12;0.00
23318;BME280;11831;55.918;37.746;2023-03-15T06:12:04;98797.59;;;6.23;0.00
23318;BME280;11831;55.918;37.746;2023-03-15T06:14:30;98803.19;;;6.09;0.00
23318;BME280;11831;55.918;37.746;2023-03-15T06:16:57;98799.94;;;6.13;0.00
23318;BME280;11831;55.918;37.746;2023-03-15T06:19:23;98796.69;;;6.05;0.00
23318;BME280;11831;55.918;37.746;2023-03-15T06:21:52;98798.22;;;5.87;0.00
23318;BME280;11831;55.918;37.746;2023-03-15T06:24:18;98790.97;;;6.08;0.00
23318;BME280;11831;55.918;37.746;2023-03-15T06:26:44;98800.25;;;6.23;0.00
23318;BME280;11831;55.918;37.746;2023-03-15T06:29:11;98796.16;;;6.28;0.00
23318;BME280;11831;55.918;37.746;2023-03-15T06:31:37;98798.09;;;6.14;0.00
23318;BME280;11831;55.918;37.746;2023-03-15T06:34:03;98821.06;;;6.27;0.00
23318;BME280;11831;55.918;37.746;2023-03-15T06:36:30;98809.31;;;6.66;0.00
23318;BME280;11831;55.918;37.746;2023-03-15T06:38:56;98813.78;;;6.47;0.00
23318;BME280;11831;55.918;37.746;2023-03-15T06:41:23;98806.28;;;6.62;0.00
23318;BME280;11831;55.918;37.746;2023-03-15T06:43:49;98810.34;;;6.40;0.00
23318;BME280;11831;55.918;37.746;2023-03-15T06:46:16;98803.56;;;6.69;0.00
23318;BME280;11831;55.918;37.746;2023-03-15T06:48:42;98815.72;;;6.58;0.00
23318;BME280;11831;55.918;37.746;2023-03-15T06:51:09;98820.50;;;6.74;0.00
23318;BME280;11831;55.918;37.746;2023-03-15T06:53:35;98823.47;;;6.60;0.00
23318;BME280;11831;55.918;37.746;2023-03-15T06:56:02;98826.94;;;6.60;0.00
23318;BME280;11831;55.918;37.746;2023-03-15T06:58:28;98827.16;;;6.59;0.00
23318;BME280;11831;55.918;37.746;2023-03-15T07:00:55;98831.44;;;7.03;0.00
23318;BME280;11831;55.918;37.746;2023-03-15T07:03:21;98838.88;;;6.76;0.00
23318;BME280;11831;55.918;37.746;2023-03-15T07:05:48;98834.63;;;6.68;0.00
23318;BME280;11831;55.918;37.746;2023-03-15T07:08:18;98830.34;;;6.92;0.00
23318;BME280;11831;55.918;37.746;2023-03-15T07:10:44;98849.34;;;7.14;0.00
23318;BME280;11831;55.918;37.746;2023-03-15T07:13:11;98840.56;;;7.50;0.00
23318;BME280;11831;55.918;37.746;2023-03-15T07:15:38;98849.75;;;6.93;0.00
23318;BME280;11831;55.918;37.746;2023-03-15T07:18:04;98851.88;;;7.45;0.00
23318;BME280;11831;55.918;37.746;2023-03-15T07:20:31;98849.66;;;7.42;0.00
23318;BME280;11831;55.918;37.746;2023-03-15T07:22:57;98865.69;;;7.54;0.00
23318;BME280;11831;55.918;37.746;2023-03-15T07:25:24;98865.22;;;7.21;0.00
23318;BME280;11831;55.918;37.746;2023-03-15T07:27:52;98866.56;;;7.11;0.00
23318;BME280;11831;55.918;37.746;2023-03-15T07:30:19;98849.66;;;7.06;0.00
23318;BME280;11831;55.918;37.746;2023-03-15T07:32:46;98858.44;;;7.25;0.00
23318;BME280;11831;55.918;37.746;2023-03-15T07:35:13;98858.69;;;7.41;0.00
23318;BME280;11831;55.918;37.746;2023-03-15T07:37:39;98852.09;;;7.44;0.00
23318;BME280;11831;55.918;37.746;2023-03-15T07:40:06;98858.22;;;7.81;0.00
23318;BME280;11831;55.918;37.746;2023-03-15T07:42:36;98860.91;;;7.93;0.00
23318;BME280;11831;55.918;37.746;2023-03-15T07:45:07;98874.69;;;7.90;0.00
23318;BME280;11831;55.918;37.746;2023-03-15T07:47:33;98866.78;;;8.31;0.00
23318;BME280;11831;55.918;37.746;2023-03-15T07:50:00;98865.56;;;7.67;0.00
23318;BME280;11831;55.918;37.746;2023-03-15T07:52:26;98855.34;;;8.13;0.00
23318;BME280;11831;55.918;37.746;2023-03-15T07:54:53;98858.72;;;8.50;0.00
23318;BME280;11831;55.918;37.746;2023-03-15T07:57:19;98861.47;;;8.13;0.00
23318;BME280;11831;55.918;37.746;2023-03-15T07:59:45;98856.56;;;8.28;0.00
23318;BME280;11831;55.918;37.746;2023-03-15T08:02:12;98869.16;;;8.21;0.00
23318;BME280;11831;55.918;37.746;2023-03-15T08:04:39;98863.28;;;8.01;0.00
23318;BME280;11831;55.918;37.746;2023-03-15T08:07:06;98875.25;;;8.10;0.00
23318;BME280;11831;55.918;37.746;2023-03-15T08:09:32;98870.25;;;8.32;0.00
23318;BME280;11831;55.918;37.746;2023-03-15T08:12:00;98873.28;;;8.35;0.00
23318;BME280;11831;55.918;37.746;2023-03-15T08:14:27;98859.66;;;8.44;0.00
23318;BME280;11831;55.918;37.746;2023-03-15T08:16:54;98855.72;;;8.46;0.00
23318;BME280;11831;55.918;37.746;2023-03-15T08:19:20;98892.31;;;8.21;0.00
23318;BME280;11831;55.918;37.746;2023-03-15T08:21:47;98890.78;;;7.95;0.00
23318;BME280;11831;55.918;37.746;2023-03-15T08:24:13;98891.91;;;7.87;0.00
23318;BME280;11831;55.918;37.746;2023-03-15T08:26:40;98897.34;;;8.29;0.00
23318;BME280;11831;55.918;37.746;2023-03-15T08:29:08;98885.88;;;8.28;0.00
23318;BME280;11831;55.918;37.746;2023-03-15T08:31:34;98895.87;;;8.15;0.00
23318;BME280;11831;55.918;37.746;2023-03-15T08:34:01;98875.66;;;8.55;0.00
23318;BME280;11831;55.918;37.746;2023-03-15T08:36:29;98895.91;;;8.26;0.00
23318;BME280;11831;55.918;37.746;2023-03-15T08:38:57;98892.66;;;8.24;0.00
23318;BME280;11831;55.918;37.746;2023-03-15T08:41:24;98902.69;;;8.59;0.00
23318;BME280;11831;55.918;37.746;2023-03-15T08:43:50;98888.03;;;8.50;0.00
23318;BME280;11831;55.918;37.746;2023-03-15T08:46:16;98887.19;;;8.79;0.00
23318;BME280;11831;55.918;37.746;2023-03-15T08:48:43;98882.53;;;8.63;0.00
23318;BME280;11831;55.918;37.746;2023-03-15T08:51:09;98907.34;;;8.75;0.00
23318;BME280;11831;55.918;37.746;2023-03-15T08:53:36;98877.72;;;8.53;0.00
23318;BME280;11831;55.918;37.746;2023-03-15T08:56:03;98877.78;;;8.65;0.00
23318;BME280;11831;55.918;37.746;2023-03-15T08:58:29;98861.31;;;8.68;0.00
23318;BME280;11831;55.918;37.746;2023-03-15T09:00:56;98869.06;;;8.58;0.00
23318;BME280;11831;55.918;37.746;2023-03-15T09:03:22;98870.69;;;8.59;0.00
23318;BME280;11831;55.918;37.746;2023-03-15T09:05:48;98895.25;;;8.31;0.00
23318;BME280;11831;55.918;37.746;2023-03-15T09:08:15;98883.50;;;9.03;0.00
23318;BME280;11831;55.918;37.746;2023-03-15T09:10:46;98888.13;;;8.96;0.00
23318;BME280;11831;55.918;37.746;2023-03-15T09:13:12;98879.22;;;9.02;0.00
23318;BME280;11831;55.918;37.746;2023-03-15T09:15:38;98890.69;;;8.91;0.00
23318;BME280;11831;55.918;37.746;2023-03-15T09:18:04;98875.16;;;9.12;0.00
23318;BME280;11831;55.918;37.746;2023-03-15T09:20:31;98875.50;;;9.15;0.00
23318;BME280;11831;55.918;37.746;2023-03-15T09:22:57;98867.25;;;9.17;0.00
23318;BME280;11831;55.918;37.746;2023-03-15T09:25:24;98868.19;;;9.11;0.00
23318;BME280;11831;55.918;37.746;2023-03-15T09:27:51;98881.03;;;8.79;0.00
23318;BME280;11831;55.918;37.746;2023-03-15T09:30:18;98862.97;;;8.92;0.00
23318;BME280;11831;55.918;37.746;2023-03-15T09:32:44;98874.19;;;8.59;0.00
23318;BME280;11831;55.918;37.746;2023-03-15T09:35:14;98865.00;;;8.55;0.00
23318;BME280;11831;55.918;37.746;2023-03-15T09:37:40;98868.25;;;8.57;0.00
23318;BME280;11831;55.918;37.746;2023-03-15T09:40:26;98868.09;;;8.94;0.00
23318;BME280;11831;55.918;37.746;2023-03-15T09:45:26;98876.72;;;8.66;0.00
23318;BME280;11831;55.918;37.746;2023-03-15T09:48:05;98891.06;;;8.53;0.00
23318;BME280;11831;55.918;37.746;2023-03-15T09:53:15;98894.03;;;8.33;0.00
23318;BME280;11831;55.918;37.746;2023-03-15T09:55:45;98895.03;;;8.62;0.00
23318;BME280;11831;55.918;37.746;2023-03-15T09:58:20;98883.84;;;9.07;0.00
23318;BME280;11831;55.918;37.746;2023-03-15T10:00:53;98900.31;;;9.27;0.00
23318;BME280;11831;55.918;37.746;2023-03-15T10:03:47;98907.16;;;9.35;0.00
23318;BME280;11831;55.918;37.746;2023-03-15T10:08:52;98894.84;;;9.46;0.00
23318;BME280;11831;55.918;37.746;2023-03-15T10:11:33;98901.63;;;9.88;0.00
23318;BME280;11831;55.918;37.746;2023-03-15T10:16:40;98894.59;;;9.47;0.00
23318;BME280;11831;55.918;37.746;2023-03-15T10:21:54;98891.47;;;10.02;0.00
23318;BME280;11831;55.918;37.746;2023-03-15T10:26:58;98892.75;;;10.40;0.00
23318;BME280;11831;55.918;37.746;2023-03-15T10:29:29;98904.13;;;9.43;0.00
23318;BME280;11831;55.918;37.746;2023-03-15T10:31:56;98902.84;;;10.09;0.00
23318;BME280;11831;55.918;37.746;2023-03-15T10:34:23;98909.22;;;9.80;0.00
23318;BME280;11831;55.918;37.746;2023-03-15T10:36:51;98890.38;;;9.75;0.00
23318;BME280;11831;55.918;37.746;2023-03-15T10:39:21;98902.06;;;9.97;0.00
23318;BME280;11831;55.918;37.746;2023-03-15T10:41:49;98899.59;;;10.64;0.00
23318;BME280;11831;55.918;37.746;2023-03-15T10:44:24;98902.87;;;10.38;0.00
23318;BME280;11831;55.918;37.746;2023-03-15T10:47:15;98899.81;;;10.17;0.00
23318;BME280;11831;55.918;37.746;2023-03-15T10:49:45;98894.41;;;10.41;0.00
23318;BME280;11831;55.918;37.746;2023-03-15T10:52:32;98901.34;;;11.04;0.00
23318;BME280;11831;55.918;37.746;2023-03-15T10:55:19;98894.25;;;10.64;0.00
23318;BME280;11831;55.918;37.746;2023-03-15T10:57:52;98904.34;;;10.91;0.00
23318;BME280;11831;55.918;37.746;2023-03-15T11:03:18;98867.16;;;10.72;0.00
23318;BME280;11831;55.918;37.746;2023-03-15T11:05:48;98887.38;;;11.02;0.00
23318;BME280;11831;55.918;37.746;2023-03-15T11:08:34;98889.91;;;10.92;0.00
23318;BME280;11831;55.918;37.746;2023-03-15T11:11:02;98882.16;;;11.45;0.00
23318;BME280;11831;55.918;37.746;2023-03-15T11:13:31;98877.25;;;10.87;0.00
23318;BME280;11831;55.918;37.746;2023-03-15T11:16:13;98877.00;;;11.61;0.00
23318;BME280;11831;55.918;37.746;2023-03-15T11:21:14;98889.50;;;11.33;0.00
23318;BME280;11831;55.918;37.746;2023-03-15T11:23:47;98887.00;;;11.48;0.00
23318;BME280;11831;55.918;37.746;2023-03-15T11:26:23;98882.50;;;11.71;0.00
23318;BME280;11831;55.918;37.746;2023-03-15T11:29:04;98908.34;;;11.43;0.00
23318;BME280;11831;55.918;37.746;2023-03-15T11:31:33;98883.53;;;11.31;0.00
23318;BME280;11831;55.918;37.746;2023-03-15T11:34:08;98884.41;;;11.54;0.00
23318;BME280;11831;55.918;37.746;2023-03-15T11:36:41;98870.66;;;11.28;0.00
23318;BME280;11831;55.918;37.746;2023-03-15T11:39:12;98890.16;;;11.07;0.00
23318;BME280;11831;55.918;37.746;2023-03-15T11:41:46;98892.84;;;11.07;0.00
23318;BME280;11831;55.918;37.746;2023-03-15T11:44:37;98887.56;;;11.50;0.00
23318;BME280;11831;55.918;37.746;2023-03-15T11:52:15;98882.28;;;11.17;0.00
23318;BME280;11831;55.918;37.746;2023-03-15T11:54:43;98875.16;;;12.86;0.00
23318;BME280;11831;55.918;37.746;2023-03-15T11:57:36;98876.06;;;12.69;0.00
23318;BME280;11831;55.918;37.746;2023-03-15T12:05:51;98874.41;;;14.73;0.00
23318;BME280;11831;55.918;37.746;2023-03-15T12:08:42;98865.19;;;15.45;0.00
23318;BME280;11831;55.918;37.746;2023-03-15T12:16:27;98880.87;;;14.87;0.00
23318;BME280;11831;55.918;37.746;2023-03-15T12:18:58;98894.31;;;14.72;0.00
23318;BME280;11831;55.918;37.746;2023-03-15T12:21:31;98869.19;;;14.25;0.00
23318;BME280;11831;55.918;37.746;2023-03-15T12:24:04;98879.78;;;14.88;0.00
23318;BME280;11831;55.918;37.746;2023-03-15T12:26:39;98869.75;;;16.19;0.00
23318;BME280;11831;55.918;37.746;2023-03-15T12:29:17;98882.53;;;16.92;0.00
23318;BME280;11831;55.918;37.746;2023-03-15T12:37:01;98856.06;;;16.10;0.00
23318;BME280;11831;55.918;37.746;2023-03-15T12:39:42;98890.69;;;16.42;0.00
23318;BME280;11831;55.918;37.746;2023-03-15T12:53:01;98887.41;;;16.01;0.00
23318;BME280;11831;55.918;37.746;2023-03-15T12:55:33;98901.50;;;15.78;0.00
23318;BME280;11831;55.918;37.746;2023-03-15T12:58:02;98901.84;;;14.95;0.00
23318;BME280;11831;55.918;37.746;2023-03-15T13:00:41;98895.91;;;15.44;0.00
23318;BME280;11831;55.918;37.746;2023-03-15T13:03:18;98895.63;;;15.66;0.00
23318;BME280;11831;55.918;37.746;2023-03-15T13:06:08;98899.12;;;16.31;0.00
23318;BME280;11831;55.918;37.746;2023-03-15T13:08:49;98904.00;;;15.13;0.00
23318;BME280;11831;55.918;37.746;2023-03-15T13:17:29;98904.25;;;16.76;0.00
23318;BME280;11831;55.918;37.746;2023-03-15T13:20:01;98889.47;;;17.85;0.00
23318;BME280;11831;55.918;37.746;2023-03-15T13:25:31;98888.84;;;16.77;0.00
23318;BME280;11831;55.918;37.746;2023-03-15T13:30:46;98884.97;;;16.93;0.00
23318;BME280;11831;55.918;37.746;2023-03-15T13:35:59;98885.88;;;15.75;0.00
23318;BME280;11831;55.918;37.746;2023-03-15T13:38:48;98876.00;;;14.53;0.00
23318;BME280;11831;55.918;37.746;2023-03-15T13:43:52;98886.59;;;15.91;0.00
23318;BME280;11831;55.918;37.746;2023-03-15T13:46:21;98869.25;;;16.66;0.00
23318;BME280;11831;55.918;37.746;2023-03-15T13:48:51;98882.03;;;16.90;0.00
23318;BME280;11831;55.918;37.746;2023-03-15T13:51:30;98889.97;;;16.71;0.00
23318;BME280;11831;55.918;37.746;2023-03-15T13:54:22;98889.53;;;17.27;0.00
23318;BME280;11831;55.918;37.746;2023-03-15T14:00:16;98874.00;;;19.49;0.00
23318;BME280;11831;55.918;37.746;2023-03-15T14:02:45;98879.19;;;18.48;0.00
23318;BME280;11831;55.918;37.746;2023-03-15T14:05:16;98886.44;;;20.19;0.00
23318;BME280;11831;55.918;37.746;2023-03-15T14:07:47;98889.47;;;18.09;0.00
23318;BME280;11831;55.918;37.746;2023-03-15T14:10:22;98892.62;;;17.39;0.00
23318;BME280;11831;55.918;37.746;2023-03-15T14:12:51;98881.59;;;15.64;0.00
23318;BME280;11831;55.918;37.746;2023-03-15T14:15:24;98881.53;;;15.84;0.00
23318;BME280;11831;55.918;37.746;2023-03-15T14:23:26;98863.47;;;14.07;0.00
23318;BME280;11831;55.918;37.746;2023-03-15T14:28:32;98877.91;;;12.64;0.00
23318;BME280;11831;55.918;37.746;2023-03-15T14:30:59;98892.91;;;12.33;0.00
23318;BME280;11831;55.918;37.746;2023-03-15T14:33:37;98889.00;;;11.97;0.00
23318;BME280;11831;55.918;37.746;2023-03-15T14:36:07;98898.81;;;11.14;0.00
23318;BME280;11831;55.918;37.746;2023-03-15T14:38:36;98892.72;;;11.35;0.00
23318;BME280;11831;55.918;37.746;2023-03-15T14:43:56;98879.38;;;12.23;0.00
23318;BME280;11831;55.918;37.746;2023-03-15T14:46:23;98889.78;;;11.75;0.00
23318;BME280;11831;55.918;37.746;2023-03-15T14:48:50;98900.31;;;11.43;0.00